createdAt,value
2023-04-30T00:02:02.818Z,6.28
2023-04-30T00:04:29.663Z,6.37
2023-04-30T00:06:56.581Z,6.38
2023-04-30T00:09:23.305Z,6.34
2023-04-30T00:11:49.982Z,6.31
2023-04-30T00:14:17.064Z,6.29
2023-04-30T00:16:43.818Z,6.30
2023-04-30T00:19:10.633Z,6.28
2023-04-30T00:21:37.345Z,6.19
2023-04-30T00:24:04.309Z,6.24
2023-04-30T00:26:31.095Z,6.22
2023-04-30T00:28:57.905Z,6.25
2023-04-30T00:31:24.658Z,6.22
2023-04-30T00:33:51.981Z,6.21
2023-04-30T00:36:19.293Z,6.27
2023-04-30T00:38:46.028Z,6.28
2023-04-30T00:41:13.505Z,6.28
2023-04-30T00:43:40.229Z,6.28
2023-04-30T00:46:06.946Z,6.18
2023-04-30T00:48:34.430Z,6.26
2023-04-30T00:51:04.032Z,6.19
2023-04-30T00:53:31.852Z,6.19
2023-04-30T00:55:59.048Z,6.21
2023-04-30T00:58:26.160Z,6.22
2023-04-30T01:00:53.484Z,6.27
2023-04-30T01:03:20.574Z,6.19
2023-04-30T01:05:47.404Z,6.30
2023-04-30T01:08:14.574Z,6.22
2023-04-30T01:11:00.562Z,6.20
2023-04-30T01:13:32.442Z,6.29
2023-04-30T01:16:19.034Z,6.33
2023-04-30T01:19:00.579Z,6.33
2023-04-30T01:21:30.883Z,6.35
2023-04-30T01:24:18.650Z,6.40
2023-04-30T01:27:07.004Z,6.40
2023-04-30T01:29:36.493Z,6.41
2023-04-30T01:32:03.737Z,6.39
2023-04-30T01:34:30.685Z,6.30
2023-04-30T01:37:15.793Z,6.39
2023-04-30T01:40:11.554Z,6.36
2023-04-30T01:43:01.292Z,6.32
2023-04-30T01:45:43.206Z,6.37
2023-04-30T01:48:35.510Z,6.42
2023-04-30T01:51:09.965Z,6.39
2023-04-30T01:53:43.158Z,6.45
2023-04-30T01:56:26.864Z,6.41
2023-04-30T01:58:54.656Z,6.38
2023-04-30T02:01:32.331Z,6.38
2023-04-30T02:04:00.419Z,6.47
2023-04-30T02:06:28.807Z,6.39
2023-04-30T02:09:02.371Z,6.36
2023-04-30T02:11:30.011Z,6.38
2023-04-30T02:13:56.812Z,6.39
2023-04-30T02:16:24.479Z,6.41
2023-04-30T02:18:52.065Z,6.45
2023-04-30T02:21:19.432Z,6.46
2023-04-30T02:23:47.355Z,6.50
2023-04-30T02:26:14.069Z,6.52
2023-04-30T02:28:40.944Z,6.51
2023-04-30T02:31:07.794Z,6.56
2023-04-30T02:33:34.536Z,6.55
2023-04-30T02:36:02.113Z,6.53
2023-04-30T02:38:29.125Z,6.53
2023-04-30T02:40:56.183Z,6.59
2023-04-30T02:43:22.825Z,6.56
2023-04-30T02:45:49.607Z,6.55
2023-04-30T02:48:16.298Z,6.57
2023-04-30T02:50:43.098Z,6.58
2023-04-30T02:53:09.757Z,6.61
2023-04-30T02:55:36.514Z,6.57
2023-04-30T02:58:04.304Z,6.62
2023-04-30T03:00:31.045Z,6.61
2023-04-30T03:02:57.792Z,6.61
2023-04-30T03:05:24.699Z,6.66
2023-04-30T03:07:51.397Z,6.60
2023-04-30T03:10:19.235Z,6.61
2023-04-30T03:12:45.984Z,6.61
2023-04-30T03:15:12.937Z,6.67
2023-04-30T03:17:39.939Z,6.64
2023-04-30T03:20:07.541Z,6.63
2023-04-30T03:22:34.179Z,6.65
2023-04-30T03:25:01.117Z,6.67
2023-04-30T03:27:27.822Z,6.63
2023-04-30T03:29:54.963Z,6.65
2023-04-30T03:32:21.957Z,6.67
2023-04-30T03:34:48.770Z,6.66
2023-04-30T03:37:15.744Z,6.62
2023-04-30T03:39:42.509Z,6.59
2023-04-30T03:42:23.123Z,6.61
2023-04-30T03:44:49.890Z,6.60
2023-04-30T03:47:16.925Z,6.59
2023-04-30T03:49:43.709Z,6.66
2023-04-30T03:52:11.253Z,6.64
2023-04-30T03:54:38.312Z,6.67
2023-04-30T03:57:05.706Z,6.67
2023-04-30T03:59:32.712Z,6.63
2023-04-30T04:02:01.747Z,6.61
2023-04-30T04:04:30.140Z,6.65
2023-04-30T04:06:57.168Z,6.68
2023-04-30T04:09:24.186Z,6.66
2023-04-30T04:11:50.925Z,6.69
2023-04-30T04:14:17.664Z,6.66
2023-04-30T04:16:44.809Z,6.69
2023-04-30T04:19:13.307Z,6.73
2023-04-30T04:21:40.110Z,6.80
2023-04-30T04:24:13.448Z,6.87
2023-04-30T04:26:40.528Z,6.82
2023-04-30T04:29:09.543Z,6.79
2023-04-30T04:31:38.538Z,6.80
2023-04-30T04:34:05.836Z,6.84
2023-04-30T04:36:34.167Z,6.83
2023-04-30T04:39:02.149Z,6.91
2023-04-30T04:41:33.807Z,6.87
2023-04-30T04:44:01.966Z,6.92
2023-04-30T04:46:30.479Z,6.91
2023-04-30T04:48:58.233Z,6.90
2023-04-30T04:51:25.188Z,6.92
2023-04-30T04:53:52.045Z,6.90
2023-04-30T04:56:19.404Z,6.94
2023-04-30T04:58:46.379Z,6.94
2023-04-30T05:01:13.481Z,6.94
2023-04-30T05:03:40.297Z,6.95
2023-04-30T05:06:07.715Z,6.93
2023-04-30T05:08:34.483Z,6.93
2023-04-30T05:11:01.906Z,6.99
2023-04-30T05:13:28.535Z,6.95
2023-04-30T05:15:55.614Z,6.96
2023-04-30T05:18:22.311Z,7.05
2023-04-30T05:20:49.350Z,7.05
2023-04-30T05:23:16.261Z,7.03
2023-04-30T05:25:43.021Z,7.03
2023-04-30T05:28:09.891Z,7.04
2023-04-30T05:30:36.766Z,7.08
2023-04-30T05:33:03.729Z,7.09
2023-04-30T05:35:30.734Z,7.06
2023-04-30T05:37:57.424Z,7.12
2023-04-30T05:40:24.177Z,7.14
2023-04-30T05:42:50.827Z,7.15
2023-04-30T05:45:17.656Z,7.14
2023-04-30T05:47:44.438Z,7.16
2023-04-30T05:50:11.548Z,7.20
2023-04-30T05:52:38.472Z,7.19
2023-04-30T05:55:05.982Z,7.18
2023-04-30T05:57:32.712Z,7.11
2023-04-30T05:59:59.418Z,7.14
2023-04-30T06:02:26.288Z,7.13
2023-04-30T06:04:53.189Z,7.15
2023-04-30T06:07:19.881Z,7.11
2023-04-30T06:09:46.591Z,7.07
2023-04-30T06:12:13.426Z,7.15
2023-04-30T06:14:43.530Z,7.09
2023-04-30T06:17:10.284Z,7.17
2023-04-30T06:19:38.838Z,7.10
2023-04-30T06:22:05.649Z,7.12
2023-04-30T06:24:32.435Z,7.09
2023-04-30T06:26:59.199Z,7.15
2023-04-30T06:29:29.673Z,7.21
2023-04-30T06:31:56.652Z,7.19
2023-04-30T06:34:23.517Z,7.22
2023-04-30T06:36:50.277Z,7.21
2023-04-30T06:39:17.337Z,7.19
2023-04-30T06:41:44.265Z,7.21
2023-04-30T06:44:11.250Z,7.24
2023-04-30T06:46:38.036Z,7.29
2023-04-30T06:49:04.797Z,7.28
2023-04-30T06:51:31.628Z,7.31
2023-04-30T06:53:58.330Z,7.37
2023-04-30T06:56:25.175Z,7.42
2023-04-30T06:58:51.888Z,7.44
2023-04-30T07:01:18.798Z,7.44
2023-04-30T07:03:45.699Z,7.46
2023-04-30T07:06:12.560Z,7.46
2023-04-30T07:08:41.191Z,7.44
2023-04-30T07:11:08.112Z,7.39
2023-04-30T07:13:34.908Z,7.45
2023-04-30T07:16:01.794Z,7.39
2023-04-30T07:18:28.544Z,7.44
2023-04-30T07:20:55.393Z,7.45
2023-04-30T07:23:22.223Z,7.47
2023-04-30T07:25:49.334Z,7.48
2023-04-30T07:28:16.294Z,7.41
2023-04-30T07:30:42.971Z,7.46
2023-04-30T07:33:10.152Z,7.53
2023-04-30T07:35:37.113Z,7.52
2023-04-30T07:38:05.558Z,7.54
2023-04-30T07:40:36.296Z,7.56
2023-04-30T07:43:04.816Z,7.60
2023-04-30T07:45:31.954Z,7.58
2023-04-30T07:47:58.786Z,7.53
2023-04-30T07:50:25.676Z,7.57
2023-04-30T07:52:52.354Z,7.57
2023-04-30T07:55:19.070Z,7.59
2023-04-30T07:57:45.798Z,7.60
2023-04-30T08:00:13.707Z,7.63
2023-04-30T08:02:40.735Z,7.63
2023-04-30T08:05:07.882Z,7.64
2023-04-30T08:07:34.838Z,7.65
2023-04-30T08:10:01.568Z,7.64
2023-04-30T08:12:28.258Z,7.72
2023-04-30T08:15:04.101Z,7.72
2023-04-30T08:17:34.250Z,7.69
2023-04-30T08:20:01.584Z,7.72
2023-04-30T08:22:28.341Z,7.73
2023-04-30T08:24:55.876Z,7.75
2023-04-30T08:27:23.432Z,7.73
2023-04-30T08:29:50.188Z,7.73
2023-04-30T08:32:19.723Z,7.67
2023-04-30T08:34:46.635Z,7.74
2023-04-30T08:37:13.489Z,7.77
2023-04-30T08:39:40.450Z,7.81
2023-04-30T08:42:09.585Z,7.89
2023-04-30T08:44:39.752Z,7.84
2023-04-30T08:47:08.248Z,7.97
2023-04-30T08:49:37.093Z,7.94
2023-04-30T08:52:04.098Z,7.96
2023-04-30T08:54:34.547Z,7.99
2023-04-30T08:57:02.684Z,8.04
2023-04-30T08:59:29.435Z,8.14
2023-04-30T09:01:56.434Z,8.18
2023-04-30T09:04:23.348Z,8.23
2023-04-30T09:06:53.205Z,8.32
2023-04-30T09:09:19.985Z,8.27
2023-04-30T09:11:46.826Z,8.32
2023-04-30T09:14:14.072Z,8.32
2023-04-30T09:16:52.832Z,8.30
2023-04-30T09:19:30.463Z,8.27
2023-04-30T09:21:57.696Z,8.27
2023-04-30T09:24:25.043Z,8.26
2023-04-30T09:26:51.885Z,8.28
2023-04-30T09:29:18.552Z,8.30
2023-04-30T09:31:48.304Z,8.29
2023-04-30T09:34:15.405Z,8.24
2023-04-30T09:36:55.571Z,8.32
2023-04-30T09:39:22.636Z,8.26
2023-04-30T09:41:52.073Z,8.24
2023-04-30T09:44:36.734Z,8.27
2023-04-30T09:47:03.877Z,8.38
2023-04-30T09:49:31.284Z,8.31
2023-04-30T09:51:59.624Z,8.31
2023-04-30T09:54:29.226Z,8.52
2023-04-30T09:57:01.994Z,8.49
2023-04-30T09:59:35.367Z,8.51
2023-04-30T10:02:03.928Z,8.52
2023-04-30T10:04:42.737Z,8.55
2023-04-30T10:07:22.150Z,8.65
2023-04-30T10:10:09.488Z,8.74
2023-04-30T10:12:48.685Z,8.69
2023-04-30T10:15:19.218Z,8.65
2023-04-30T10:17:57.763Z,8.76
2023-04-30T10:20:26.845Z,8.78
2023-04-30T10:22:53.877Z,8.70
2023-04-30T10:25:23.064Z,8.69
2023-04-30T10:27:50.982Z,8.73
2023-04-30T10:30:18.316Z,8.79
2023-04-30T10:32:55.743Z,8.78
2023-04-30T10:35:27.265Z,8.81
2023-04-30T10:38:09.262Z,8.86
2023-04-30T10:40:39.860Z,8.88
2023-04-30T10:43:06.741Z,8.92
2023-04-30T10:45:38.510Z,8.95
2023-04-30T10:48:06.915Z,9.01
2023-04-30T10:50:43.485Z,9.19
2023-04-30T10:53:18.593Z,9.40
2023-04-30T10:56:13.301Z,9.30
2023-04-30T10:58:40.427Z,9.34
2023-04-30T11:01:15.735Z,9.43
2023-04-30T11:04:03.859Z,9.66
2023-04-30T11:06:51.809Z,10.07
2023-04-30T11:09:18.979Z,10.18
2023-04-30T11:11:47.382Z,9.96
2023-04-30T11:14:20.846Z,9.83
2023-04-30T11:16:53.713Z,9.67
2023-04-30T11:19:22.881Z,9.65
2023-04-30T11:22:04.802Z,9.55
2023-04-30T11:24:54.653Z,9.72
2023-04-30T11:27:26.255Z,9.61
2023-04-30T11:29:54.332Z,9.71
2023-04-30T11:32:23.475Z,9.51
2023-04-30T11:34:50.787Z,9.67
2023-04-30T11:37:44.710Z,9.86
2023-04-30T11:40:15.731Z,9.93
2023-04-30T11:42:46.087Z,9.90
2023-04-30T11:45:20.924Z,9.80
2023-04-30T11:47:54.133Z,10.12
2023-04-30T11:50:29.729Z,10.21
2023-04-30T11:52:59.489Z,10.11
2023-04-30T11:55:27.912Z,10.05
2023-04-30T11:57:56.279Z,9.97
2023-04-30T12:00:30.229Z,9.96
2023-04-30T12:03:00.064Z,9.85
2023-04-30T12:05:28.162Z,9.51
2023-04-30T12:08:00.364Z,9.55
2023-04-30T12:10:27.389Z,9.63
2023-04-30T12:12:55.364Z,9.52
2023-04-30T12:15:27.007Z,9.48
2023-04-30T12:18:11.106Z,9.63
2023-04-30T12:20:38.335Z,9.61
2023-04-30T12:23:05.177Z,9.63
2023-04-30T12:25:40.336Z,9.37
2023-04-30T12:28:07.101Z,9.28
2023-04-30T12:30:34.233Z,9.39
2023-04-30T12:33:03.411Z,9.30
2023-04-30T12:35:31.458Z,9.39
2023-04-30T12:38:06.756Z,9.50
2023-04-30T12:40:34.323Z,9.48
2023-04-30T12:43:09.139Z,9.52
2023-04-30T12:45:52.121Z,9.67
2023-04-30T12:48:21.375Z,9.73
2023-04-30T12:50:54.263Z,9.85
2023-04-30T12:53:22.123Z,9.73
2023-04-30T12:56:17.167Z,10.21
2023-04-30T12:58:47.325Z,10.35
2023-04-30T13:01:20.498Z,10.60
2023-04-30T13:03:47.562Z,10.53
2023-04-30T13:06:14.402Z,10.34
2023-04-30T13:08:54.032Z,10.18
2023-04-30T13:11:26.453Z,10.30
2023-04-30T13:13:55.595Z,10.35
2023-04-30T13:16:26.754Z,10.29
2023-04-30T13:18:53.648Z,10.33
2023-04-30T13:21:21.216Z,10.30
2023-04-30T13:23:53.344Z,10.16
2023-04-30T13:26:23.480Z,10.27
2023-04-30T13:28:50.460Z,10.31
2023-04-30T13:31:17.249Z,10.34
2023-04-30T13:33:44.065Z,10.50
2023-04-30T13:36:11.015Z,10.33
2023-04-30T13:38:39.376Z,10.22
2023-04-30T13:41:06.749Z,10.50
2023-04-30T13:43:33.529Z,10.19
2023-04-30T13:46:00.219Z,10.23
2023-04-30T13:48:26.989Z,10.22
2023-04-30T13:50:54.248Z,9.92
2023-04-30T13:53:21.022Z,10.05
2023-04-30T13:55:47.835Z,9.84
2023-04-30T13:58:15.795Z,9.91
2023-04-30T14:00:42.514Z,9.75
2023-04-30T14:03:10.332Z,9.76
2023-04-30T14:05:37.612Z,9.82
2023-04-30T14:08:04.604Z,9.76
2023-04-30T14:10:32.221Z,9.74
2023-04-30T14:12:58.970Z,9.79
2023-04-30T14:15:26.070Z,9.59
2023-04-30T14:17:53.101Z,9.69
2023-04-30T14:20:19.921Z,9.79
2023-04-30T14:22:47.017Z,9.72
2023-04-30T14:25:13.706Z,9.78
2023-04-30T14:27:40.737Z,9.91
2023-04-30T14:30:08.374Z,9.90
2023-04-30T14:32:35.054Z,9.96
2023-04-30T14:35:02.533Z,9.99
2023-04-30T14:37:29.555Z,10.17
2023-04-30T14:39:56.538Z,10.15
2023-04-30T14:42:23.625Z,10.17
2023-04-30T14:44:50.392Z,10.14
2023-04-30T14:47:17.247Z,10.11
2023-04-30T14:49:43.962Z,10.07
2023-04-30T14:52:10.667Z,9.87
2023-04-30T14:54:37.431Z,9.97
2023-04-30T14:57:04.214Z,10.07
2023-04-30T14:59:32.235Z,10.24
2023-04-30T15:01:58.983Z,10.16
2023-04-30T15:04:25.736Z,10.32
2023-04-30T15:06:52.623Z,10.32
2023-04-30T15:09:19.917Z,10.30
2023-04-30T15:11:46.642Z,10.35
2023-04-30T15:14:13.356Z,10.49
2023-04-30T15:16:40.107Z,10.79
2023-04-30T15:19:06.836Z,10.97
2023-04-30T15:21:34.166Z,11.13
2023-04-30T15:24:01.125Z,11.37
2023-04-30T15:26:28.830Z,11.54
2023-04-30T15:28:56.853Z,11.53
2023-04-30T15:31:24.265Z,11.58
2023-04-30T15:33:51.706Z,11.73
2023-04-30T15:36:18.496Z,11.79
2023-04-30T15:38:45.237Z,11.42
2023-04-30T15:41:11.864Z,11.32
2023-04-30T15:43:38.550Z,11.24
2023-04-30T15:46:05.426Z,11.16
2023-04-30T15:48:32.147Z,11.15
2023-04-30T15:50:59.340Z,10.89
2023-04-30T15:53:26.164Z,10.73
2023-04-30T15:55:53.304Z,10.71
2023-04-30T15:58:20.104Z,10.65
2023-04-30T16:00:47.051Z,10.63
2023-04-30T16:03:13.911Z,10.71
2023-04-30T16:05:41.279Z,10.66
2023-04-30T16:08:10.160Z,10.27
2023-04-30T16:10:38.791Z,10.56
2023-04-30T16:13:05.772Z,10.70
2023-04-30T16:15:32.765Z,10.71
2023-04-30T16:17:59.832Z,10.63
2023-04-30T16:20:27.836Z,10.68
2023-04-30T16:22:55.744Z,10.63
2023-04-30T16:25:22.774Z,10.71
2023-04-30T16:27:50.347Z,10.80
2023-04-30T16:30:17.140Z,10.98
2023-04-30T16:32:44.527Z,10.90
2023-04-30T16:35:11.530Z,11.01
2023-04-30T16:37:38.338Z,10.97
2023-04-30T16:40:07.498Z,11.00
2023-04-30T16:42:36.363Z,11.08
2023-04-30T16:45:03.399Z,11.18
2023-04-30T16:47:30.318Z,11.15
2023-04-30T16:49:58.639Z,11.13
2023-04-30T16:52:25.773Z,10.94
2023-04-30T16:54:52.523Z,10.72
2023-04-30T16:57:19.248Z,10.91
2023-04-30T16:59:46.768Z,10.93
2023-04-30T17:02:13.600Z,11.04
2023-04-30T17:04:40.286Z,10.97
2023-04-30T17:07:07.495Z,10.91
2023-04-30T17:09:34.228Z,11.01
2023-04-30T17:12:02.556Z,10.70
2023-04-30T17:14:29.781Z,10.82
2023-04-30T17:16:57.355Z,10.93
2023-04-30T17:19:24.104Z,10.84
2023-04-30T17:21:51.035Z,10.77
2023-04-30T17:24:17.632Z,10.61
2023-04-30T17:26:44.389Z,10.83
2023-04-30T17:29:11.592Z,10.85
2023-04-30T17:31:38.518Z,10.66
2023-04-30T17:34:05.365Z,10.78
2023-04-30T17:36:31.999Z,10.86
2023-04-30T17:38:58.772Z,10.92
2023-04-30T17:41:26.329Z,10.99
2023-04-30T17:43:53.050Z,10.93
2023-04-30T17:46:19.854Z,11.04
2023-04-30T17:48:46.612Z,10.98
2023-04-30T17:51:13.424Z,11.06
2023-04-30T17:53:40.748Z,11.21
2023-04-30T17:56:08.860Z,11.09
2023-04-30T17:58:36.594Z,11.16
2023-04-30T18:01:05.549Z,11.17
2023-04-30T18:03:32.632Z,11.10
2023-04-30T18:05:59.533Z,11.16
2023-04-30T18:08:26.816Z,11.33
2023-04-30T18:10:55.238Z,11.35
2023-04-30T18:13:22.436Z,11.37
2023-04-30T18:15:49.460Z,11.41
2023-04-30T18:18:16.401Z,11.53
2023-04-30T18:20:43.300Z,11.50
2023-04-30T18:23:10.226Z,11.56
2023-04-30T18:25:37.322Z,11.51
2023-04-30T18:28:04.031Z,11.58
2023-04-30T18:30:31.263Z,11.53
2023-04-30T18:32:58.194Z,11.67
2023-04-30T18:35:24.902Z,11.72
2023-04-30T18:37:51.571Z,11.56
2023-04-30T18:40:19.119Z,11.49
2023-04-30T18:42:46.051Z,11.48
2023-04-30T18:45:14.518Z,11.32
2023-04-30T18:47:41.769Z,11.28
2023-04-30T18:50:15.405Z,11.13
2023-04-30T18:52:42.186Z,11.03
2023-04-30T18:55:11.643Z,10.87
2023-04-30T18:57:41.848Z,10.76
2023-04-30T19:00:09.560Z,10.67
2023-04-30T19:02:36.710Z,10.74
2023-04-30T19:05:04.823Z,10.82
2023-04-30T19:07:31.487Z,10.88
2023-04-30T19:09:58.618Z,10.93
2023-04-30T19:12:25.334Z,10.93
2023-04-30T19:14:52.079Z,10.95
2023-04-30T19:17:21.482Z,10.92
2023-04-30T19:19:50.192Z,10.93
2023-04-30T19:22:17.718Z,10.84
2023-04-30T19:24:44.700Z,10.82
2023-04-30T19:27:11.688Z,10.91
2023-04-30T19:29:39.614Z,10.95
2023-04-30T19:32:06.800Z,10.88
2023-04-30T19:34:35.182Z,10.96
2023-04-30T19:37:01.918Z,10.98
2023-04-30T19:39:33.871Z,11.01
2023-04-30T19:42:01.594Z,11.01
2023-04-30T19:44:29.504Z,11.06
2023-04-30T19:46:56.557Z,11.07
2023-04-30T19:49:26.544Z,11.21
2023-04-30T19:51:54.114Z,11.09
2023-04-30T19:54:20.841Z,10.92
2023-04-30T19:56:47.677Z,10.93
2023-04-30T19:59:14.465Z,10.87
2023-04-30T20:01:42.094Z,10.92
2023-04-30T20:04:08.890Z,10.81
2023-04-30T20:06:35.953Z,10.85
2023-04-30T20:09:02.689Z,10.77
2023-04-30T20:11:29.473Z,10.74
2023-04-30T20:13:56.413Z,10.68
2023-04-30T20:16:23.345Z,10.73
2023-04-30T20:18:50.185Z,10.57
2023-04-30T20:21:19.304Z,10.53
2023-04-30T20:23:47.376Z,10.50
2023-04-30T20:26:14.049Z,10.55
2023-04-30T20:28:40.771Z,10.52
2023-04-30T20:31:09.934Z,10.51
2023-04-30T20:33:36.716Z,10.37
2023-04-30T20:36:03.480Z,10.40
2023-04-30T20:38:30.256Z,10.21
2023-04-30T20:40:58.548Z,10.28
2023-04-30T20:43:25.402Z,10.23
2023-04-30T20:45:52.177Z,10.23
2023-04-30T20:48:19.132Z,10.15
2023-04-30T20:50:46.114Z,10.13
2023-04-30T20:53:14.256Z,10.14
2023-04-30T20:55:41.212Z,10.04
2023-04-30T20:58:09.221Z,10.00
2023-04-30T21:00:36.271Z,9.94
2023-04-30T21:03:03.307Z,9.92
2023-04-30T21:05:30.299Z,10.01
2023-04-30T21:08:01.398Z,10.00
2023-04-30T21:10:35.352Z,10.09
2023-04-30T21:13:05.258Z,10.09
2023-04-30T21:15:34.540Z,10.02
2023-04-30T21:18:01.443Z,10.01
2023-04-30T21:20:28.318Z,10.14
2023-04-30T21:22:55.204Z,10.16
2023-04-30T21:25:22.308Z,10.12
2023-04-30T21:27:49.046Z,10.21
2023-04-30T21:30:17.072Z,10.23
2023-04-30T21:32:48.116Z,10.35
2023-04-30T21:35:15.422Z,10.33
2023-04-30T21:37:42.294Z,10.38
2023-04-30T21:40:09.539Z,10.46
2023-04-30T21:42:36.400Z,10.52
2023-04-30T21:45:03.434Z,10.56
2023-04-30T21:47:30.677Z,10.60
2023-04-30T21:49:58.660Z,10.58
2023-04-30T21:52:25.740Z,10.70
2023-04-30T21:54:52.452Z,10.76
2023-04-30T21:57:19.604Z,10.75
2023-04-30T21:59:46.363Z,10.77
2023-04-30T22:04:46.943Z,10.81
2023-04-30T22:07:13.678Z,10.82
2023-04-30T22:09:40.447Z,10.82
2023-04-30T22:12:08.430Z,10.83
2023-04-30T22:14:35.410Z,10.83
2023-04-30T22:17:02.317Z,10.75
2023-04-30T22:19:29.035Z,10.64
2023-04-30T22:21:55.721Z,10.63
2023-04-30T22:24:22.493Z,10.51
2023-04-30T22:26:49.669Z,10.46
2023-04-30T22:29:16.424Z,10.37
2023-04-30T22:31:43.163Z,10.31
2023-04-30T22:34:10.207Z,10.12
2023-04-30T22:36:37.099Z,10.15
2023-04-30T22:39:04.498Z,10.25
2023-04-30T22:41:34.197Z,10.20
2023-04-30T22:44:01.211Z,10.22
2023-04-30T22:46:29.796Z,10.30
2023-04-30T22:48:56.752Z,10.22
2023-04-30T22:51:23.560Z,10.10
2023-04-30T22:53:50.508Z,10.15
2023-04-30T22:56:17.169Z,10.17
2023-04-30T22:58:43.878Z,10.12
2023-04-30T23:01:10.718Z,10.07
2023-04-30T23:03:38.595Z,10.01
2023-04-30T23:06:05.503Z,9.98
2023-04-30T23:08:32.295Z,9.98
2023-04-30T23:10:59.031Z,9.97
2023-04-30T23:13:25.667Z,9.97
2023-04-30T23:15:52.570Z,9.83
2023-04-30T23:18:21.446Z,9.96
2023-04-30T23:20:48.195Z,9.82
2023-04-30T23:23:14.991Z,9.82
2023-04-30T23:25:41.760Z,9.81
2023-04-30T23:28:08.437Z,9.82
2023-04-30T23:30:39.083Z,9.77
2023-04-30T23:33:05.843Z,9.76
2023-04-30T23:35:32.564Z,9.74
2023-04-30T23:37:59.271Z,9.76
2023-04-30T23:40:25.899Z,9.64
2023-04-30T23:42:52.674Z,9.57
2023-04-30T23:45:20.825Z,9.53
2023-04-30T23:47:47.682Z,9.57
2023-04-30T23:50:15.146Z,9.61
2023-04-30T23:52:42.605Z,9.53
2023-04-30T23:55:09.619Z,9.44
2023-04-30T23:57:36.920Z,9.40
